createdAt,value
2017-12-14T00:00:14.575Z,71.41
2017-12-14T00:02:41.156Z,72.87
2017-12-14T00:05:07.596Z,73.19
2017-12-14T00:07:33.985Z,73.26
2017-12-14T00:10:00.380Z,73.48
2017-12-14T00:12:26.827Z,73.55
2017-12-14T00:14:53.239Z,73.80
2017-12-14T00:17:19.663Z,74.08
2017-12-14T00:19:46.139Z,74.16
2017-12-14T00:22:12.616Z,74.08
2017-12-14T00:24:38.901Z,73.68
2017-12-14T00:27:05.301Z,73.85
2017-12-14T00:29:31.627Z,73.83
2017-12-14T00:31:57.985Z,73.78
2017-12-14T00:34:24.418Z,73.39
2017-12-14T00:36:50.827Z,73.62
2017-12-14T00:39:17.182Z,73.58
2017-12-14T00:41:43.718Z,73.41
2017-12-14T00:44:10.258Z,73.85
2017-12-14T00:46:36.716Z,74.05
2017-12-14T00:49:03.164Z,74.20
2017-12-14T00:51:29.527Z,74.30
2017-12-14T00:53:55.987Z,72.38
2017-12-14T00:56:22.566Z,72.55
2017-12-14T00:58:49.059Z,73.35
2017-12-14T01:01:15.427Z,72.92
2017-12-14T01:03:41.872Z,73.56
2017-12-14T01:06:08.461Z,73.79
2017-12-14T01:08:34.920Z,74.19
2017-12-14T01:11:01.429Z,74.31
2017-12-14T01:13:27.868Z,73.77
2017-12-14T01:15:54.290Z,72.52
2017-12-14T01:18:20.966Z,73.60
2017-12-14T01:20:47.406Z,73.56
2017-12-14T01:23:13.885Z,73.56
2017-12-14T01:25:40.520Z,73.29
2017-12-14T01:28:07.036Z,73.52
2017-12-14T01:30:33.513Z,71.88
2017-12-14T01:33:00.317Z,73.10
2017-12-14T01:35:26.772Z,71.85
2017-12-14T01:37:53.233Z,72.52
2017-12-14T01:40:19.845Z,73.12
2017-12-14T01:42:46.278Z,71.34
2017-12-14T01:45:12.802Z,72.73
2017-12-14T01:47:39.362Z,70.54
2017-12-14T01:50:05.912Z,72.52
2017-12-14T01:52:32.421Z,72.96
2017-12-14T01:54:58.996Z,72.82
2017-12-14T01:57:25.458Z,73.00
2017-12-14T01:59:52.073Z,72.05
2017-12-14T02:02:18.665Z,72.54
2017-12-14T02:04:45.196Z,70.33
2017-12-14T02:07:11.658Z,72.26
2017-12-14T02:09:38.369Z,71.61
2017-12-14T02:12:04.822Z,72.38
2017-12-14T02:14:31.346Z,72.90
2017-12-14T02:16:57.848Z,73.07
2017-12-14T02:19:24.357Z,72.87
2017-12-14T02:21:50.793Z,73.24
2017-12-14T02:24:17.502Z,73.25
2017-12-14T02:26:44.035Z,73.17
2017-12-14T02:29:10.469Z,71.60
2017-12-14T02:31:37.014Z,72.56
2017-12-14T02:34:03.437Z,72.93
2017-12-14T02:36:29.912Z,73.03
2017-12-14T02:38:56.438Z,72.64
2017-12-14T02:41:22.914Z,73.25
2017-12-14T02:43:49.375Z,73.57
2017-12-14T02:46:16.014Z,73.54
2017-12-14T02:48:42.529Z,73.68
2017-12-14T02:51:09.062Z,73.15
2017-12-14T02:53:35.574Z,70.60
2017-12-14T02:56:02.007Z,72.54
2017-12-14T02:58:28.485Z,72.85
2017-12-14T03:00:55.001Z,71.16
2017-12-14T03:03:21.446Z,71.48
2017-12-14T03:05:48.041Z,72.26
2017-12-14T03:08:14.691Z,72.09
2017-12-14T03:10:41.131Z,72.74
2017-12-14T03:13:07.573Z,72.93
2017-12-14T03:15:34.190Z,71.81
2017-12-14T03:18:00.725Z,73.02
2017-12-14T03:20:27.161Z,71.73
2017-12-14T03:22:53.685Z,72.98
2017-12-14T03:25:20.109Z,72.74
2017-12-14T03:27:46.551Z,73.48
2017-12-14T03:30:13.707Z,73.63
2017-12-14T03:32:40.138Z,73.97
2017-12-14T03:35:06.654Z,73.59
2017-12-14T03:37:33.206Z,72.13
2017-12-14T03:39:59.674Z,72.61
2017-12-14T03:42:26.189Z,71.90
2017-12-14T03:44:52.701Z,72.73
2017-12-14T03:47:19.225Z,73.00
2017-12-14T03:49:45.793Z,73.16
2017-12-14T03:52:12.462Z,73.32
2017-12-14T03:54:38.950Z,73.23
2017-12-14T03:57:12.549Z,72.50
2017-12-14T03:59:39.070Z,73.05
2017-12-14T04:02:05.521Z,73.32
2017-12-14T04:04:32.049Z,72.30
2017-12-14T04:06:58.567Z,72.45
2017-12-14T04:09:25.170Z,72.36
2017-12-14T04:11:51.932Z,72.22
2017-12-14T04:14:18.635Z,71.34
2017-12-14T04:16:45.165Z,71.88
2017-12-14T04:19:11.801Z,72.00
2017-12-14T04:21:38.326Z,72.21
2017-12-14T04:24:04.854Z,72.59
2017-12-14T04:26:31.565Z,72.70
2017-12-14T04:28:58.070Z,73.07
2017-12-14T04:31:24.609Z,73.17
2017-12-14T04:33:51.382Z,73.10
2017-12-14T04:36:17.925Z,72.68
2017-12-14T04:38:44.466Z,73.14
2017-12-14T04:41:11.054Z,73.26
2017-12-14T04:43:37.598Z,73.47
2017-12-14T04:46:04.148Z,73.60
2017-12-14T04:48:30.750Z,73.88
2017-12-14T04:50:57.289Z,73.86
2017-12-14T04:53:23.818Z,73.95
2017-12-14T04:55:50.370Z,73.90
2017-12-14T04:58:16.906Z,73.90
2017-12-14T05:00:43.546Z,74.02
2017-12-14T05:03:10.106Z,73.01
2017-12-14T05:05:36.805Z,72.86
2017-12-14T05:08:03.438Z,72.12
2017-12-14T05:10:30.050Z,72.27
2017-12-14T05:12:56.590Z,72.27
2017-12-14T05:15:23.146Z,72.25
2017-12-14T05:17:49.878Z,72.58
2017-12-14T05:20:16.462Z,72.78
2017-12-14T05:22:43.033Z,72.52
2017-12-14T05:25:09.805Z,72.50
2017-12-14T05:27:36.381Z,72.34
2017-12-14T05:30:02.938Z,72.66
2017-12-14T05:32:29.576Z,72.67
2017-12-14T05:34:56.077Z,72.66
2017-12-14T05:37:22.790Z,72.84
2017-12-14T05:39:49.457Z,72.96
2017-12-14T05:42:15.993Z,73.06
2017-12-14T05:44:42.502Z,73.11
2017-12-14T05:47:09.076Z,72.97
2017-12-14T05:49:35.793Z,72.90
2017-12-14T05:52:02.433Z,73.19
2017-12-14T05:54:29.018Z,73.15
2017-12-14T05:56:55.637Z,73.33
2017-12-14T05:59:22.495Z,73.39
2017-12-14T06:01:50.745Z,73.38
2017-12-14T06:04:17.701Z,73.34
2017-12-14T06:06:44.229Z,73.39
2017-12-14T06:09:10.891Z,73.37
2017-12-14T06:11:37.457Z,73.65
2017-12-14T06:14:04.065Z,74.13
2017-12-14T06:16:30.664Z,74.89
2017-12-14T06:18:57.323Z,75.05
2017-12-14T06:21:23.927Z,74.43
2017-12-14T06:23:50.614Z,73.78
2017-12-14T06:26:17.242Z,73.06
2017-12-14T06:28:44.131Z,72.53
2017-12-14T06:31:10.761Z,72.27
2017-12-14T06:33:37.362Z,71.67
2017-12-14T06:36:04.042Z,71.80
2017-12-14T06:38:30.705Z,71.39
2017-12-14T06:40:57.290Z,71.73
2017-12-14T06:43:23.905Z,71.94
2017-12-14T06:45:50.621Z,72.04
2017-12-14T06:48:17.189Z,72.00
2017-12-14T06:50:43.786Z,72.31
2017-12-14T06:53:10.382Z,72.54
2017-12-14T06:55:36.929Z,72.46
2017-12-14T06:58:03.732Z,72.51
2017-12-14T07:00:30.351Z,73.03
2017-12-14T07:03:09.030Z,73.32
2017-12-14T07:05:35.509Z,73.55
2017-12-14T07:08:02.140Z,73.47
2017-12-14T07:10:28.674Z,72.01
2017-12-14T07:12:55.497Z,72.77
2017-12-14T07:15:22.178Z,72.07
2017-12-14T07:17:48.749Z,71.25
2017-12-14T07:20:15.385Z,71.53
2017-12-14T07:22:41.966Z,72.01
2017-12-14T07:25:08.657Z,72.64
2017-12-14T07:27:35.394Z,72.96
2017-12-14T07:30:02.139Z,73.34
2017-12-14T07:32:28.767Z,72.81
2017-12-14T07:34:55.421Z,72.98
2017-12-14T07:37:21.961Z,73.01
2017-12-14T07:39:48.469Z,71.16
2017-12-14T07:42:27.009Z,69.41
2017-12-14T07:58:20.721Z,68.90
2017-12-14T08:00:47.274Z,67.30
2017-12-14T08:03:13.819Z,66.65
2017-12-14T08:05:40.550Z,66.65
2017-12-14T08:08:07.269Z,67.41
2017-12-14T08:10:33.874Z,69.84
2017-12-14T08:13:00.548Z,67.50
2017-12-14T08:15:27.231Z,67.01
2017-12-14T08:17:53.778Z,67.71
2017-12-14T08:20:20.418Z,69.25
2017-12-14T08:22:47.012Z,66.88
2017-12-14T08:25:13.598Z,65.43
2017-12-14T08:27:40.497Z,66.93
2017-12-14T08:30:07.156Z,68.86
2017-12-14T08:32:33.717Z,69.38
2017-12-14T08:35:00.661Z,66.38
2017-12-14T08:37:27.287Z,66.64
2017-12-14T08:39:53.901Z,67.34
2017-12-14T08:42:20.583Z,67.92
2017-12-14T08:44:47.153Z,62.82
2017-12-14T08:47:13.785Z,65.07
2017-12-14T08:49:40.341Z,63.06
2017-12-14T08:52:06.962Z,62.59
2017-12-14T08:54:33.558Z,63.79
2017-12-14T08:57:00.131Z,63.69
2017-12-14T08:59:26.742Z,65.68
2017-12-14T09:01:53.270Z,67.63
2017-12-14T09:04:19.890Z,67.50
2017-12-14T09:06:46.575Z,63.93
2017-12-14T09:09:13.343Z,67.03
2017-12-14T09:11:39.938Z,66.59
2017-12-14T09:14:09.438Z,66.56
2017-12-14T09:16:36.201Z,65.39
2017-12-14T09:19:02.889Z,65.07
2017-12-14T09:21:29.521Z,65.16
2017-12-14T09:23:56.161Z,62.49
2017-12-14T09:26:22.766Z,59.81
2017-12-14T09:28:49.317Z,59.67
2017-12-14T09:31:15.930Z,61.97
2017-12-14T09:33:42.858Z,60.63
2017-12-14T09:36:09.434Z,62.04
2017-12-14T09:38:36.019Z,66.35
2017-12-14T09:41:02.650Z,67.69
2017-12-14T09:43:29.158Z,67.53
2017-12-14T09:45:55.893Z,62.37
2017-12-14T09:48:22.510Z,61.97
2017-12-14T09:50:49.090Z,65.63
2017-12-14T09:53:15.607Z,66.42
2017-12-14T09:55:42.240Z,64.06
2017-12-14T09:58:09.006Z,61.22
2017-12-14T10:00:35.646Z,64.65
2017-12-14T10:03:03.912Z,64.07
2017-12-14T10:05:30.458Z,63.94
2017-12-14T10:07:57.371Z,59.26
2017-12-14T10:10:23.930Z,63.10
2017-12-14T10:12:50.478Z,62.31
2017-12-14T10:15:17.019Z,63.96
2017-12-14T10:17:43.798Z,61.19
2017-12-14T10:20:10.354Z,62.05
2017-12-14T10:22:36.933Z,61.98
2017-12-14T10:25:03.549Z,63.10
2017-12-14T10:27:30.105Z,60.22
2017-12-14T10:29:56.661Z,63.07
2017-12-14T10:32:23.302Z,63.11
2017-12-14T10:34:49.977Z,62.48
2017-12-14T10:37:16.923Z,62.36
2017-12-14T10:39:43.490Z,61.07
2017-12-14T10:42:10.052Z,59.26
2017-12-14T10:44:36.593Z,61.54
2017-12-14T10:47:03.300Z,61.27
2017-12-14T10:49:29.862Z,60.54
2017-12-14T10:51:56.562Z,57.20
2017-12-14T10:54:25.289Z,57.68
2017-12-14T10:56:52.055Z,62.04
2017-12-14T10:59:18.737Z,61.09
2017-12-14T11:01:45.371Z,59.96
2017-12-14T11:04:12.079Z,59.82
2017-12-14T11:06:38.686Z,58.80
2017-12-14T11:09:05.349Z,58.88
2017-12-14T11:11:32.065Z,58.74
2017-12-14T11:13:58.782Z,58.29
2017-12-14T11:16:25.442Z,58.02
2017-12-14T11:18:52.006Z,56.93
2017-12-14T11:21:18.609Z,56.91
2017-12-14T11:23:45.322Z,56.89
2017-12-14T11:26:11.926Z,57.37
2017-12-14T11:28:38.538Z,56.63
2017-12-14T11:31:05.160Z,55.17
2017-12-14T11:33:32.597Z,54.64
2017-12-14T11:35:59.210Z,57.10
2017-12-14T11:38:25.969Z,57.29
2017-12-14T11:40:52.524Z,56.84
2017-12-14T11:43:19.141Z,56.76
2017-12-14T11:45:45.774Z,55.79
2017-12-14T11:48:12.325Z,57.45
2017-12-14T11:50:39.038Z,57.18
2017-12-14T11:53:05.681Z,55.97
2017-12-14T11:55:32.390Z,58.82
2017-12-14T11:57:58.930Z,58.26
2017-12-14T12:00:25.793Z,60.08
2017-12-14T12:02:52.377Z,59.23
2017-12-14T12:05:19.014Z,58.32
2017-12-14T12:07:45.786Z,57.49
2017-12-14T12:10:12.421Z,57.61
2017-12-14T12:12:39.026Z,56.90
2017-12-14T12:15:05.679Z,56.42
2017-12-14T12:17:32.209Z,54.31
2017-12-14T12:19:58.758Z,55.63
2017-12-14T12:22:25.539Z,55.54
2017-12-14T12:24:52.264Z,57.52
2017-12-14T12:27:18.822Z,55.02
2017-12-14T12:29:45.533Z,56.84
2017-12-14T12:32:12.170Z,56.61
2017-12-14T12:34:38.746Z,56.60
2017-12-14T12:37:05.583Z,55.66
2017-12-14T12:39:32.187Z,55.73
2017-12-14T12:41:58.762Z,55.04
2017-12-14T12:44:25.342Z,54.60
2017-12-14T12:46:51.850Z,55.14
2017-12-14T12:49:18.467Z,55.38
2017-12-14T12:51:45.062Z,54.83
2017-12-14T12:54:11.609Z,54.88
2017-12-14T12:56:38.186Z,54.81
2017-12-14T12:59:04.769Z,54.25
2017-12-14T13:01:31.314Z,54.85
2017-12-14T13:03:57.855Z,55.02
2017-12-14T13:06:24.614Z,55.35
2017-12-14T13:08:51.258Z,54.85
2017-12-14T13:11:17.821Z,54.00
2017-12-14T13:13:44.734Z,54.95
2017-12-14T13:16:11.449Z,55.04
2017-12-14T13:18:37.985Z,55.33
2017-12-14T13:21:04.678Z,55.64
2017-12-14T13:23:31.319Z,54.90
2017-12-14T13:25:57.882Z,55.35
2017-12-14T13:28:24.778Z,55.26
2017-12-14T13:30:51.365Z,55.33
2017-12-14T13:33:18.002Z,55.33
2017-12-14T13:35:44.658Z,55.76
2017-12-14T13:38:11.192Z,55.74
2017-12-14T13:40:37.993Z,56.14
2017-12-14T13:43:04.676Z,55.68
2017-12-14T13:45:31.211Z,56.27
2017-12-14T13:47:57.805Z,56.75
2017-12-14T13:50:24.391Z,56.93
2017-12-14T13:52:50.974Z,57.05
2017-12-14T13:55:17.522Z,56.84
2017-12-14T13:57:44.322Z,56.69
2017-12-14T14:00:10.935Z,56.48
2017-12-14T14:02:37.534Z,56.49
2017-12-14T14:05:04.297Z,56.72
2017-12-14T14:07:30.780Z,56.68
2017-12-14T14:09:57.635Z,57.12
2017-12-14T14:12:24.254Z,56.87
2017-12-14T14:14:50.773Z,57.15
2017-12-14T14:17:17.243Z,57.88
2017-12-14T14:19:43.856Z,58.28
2017-12-14T14:22:10.366Z,58.35
2017-12-14T14:24:36.913Z,59.33
2017-12-14T14:27:03.651Z,59.07
2017-12-14T14:29:30.126Z,60.09
2017-12-14T14:31:56.699Z,59.55
2017-12-14T14:34:23.302Z,60.25
2017-12-14T14:36:49.869Z,60.34
2017-12-14T14:39:16.373Z,60.13
2017-12-14T14:41:42.926Z,60.40
2017-12-14T14:44:09.402Z,60.78
2017-12-14T14:46:35.892Z,60.48
2017-12-14T14:49:02.502Z,61.59
2017-12-14T14:51:29.010Z,60.79
2017-12-14T14:53:55.539Z,61.56
2017-12-14T14:56:22.033Z,61.46
2017-12-14T14:58:48.501Z,61.46
2017-12-14T15:01:15.005Z,62.03
2017-12-14T15:03:43.799Z,62.23
2017-12-14T15:06:10.804Z,62.50
2017-12-14T15:08:37.295Z,62.04
2017-12-14T15:11:03.814Z,62.46
2017-12-14T15:13:30.307Z,62.84
2017-12-14T15:15:56.757Z,62.47
2017-12-14T15:18:23.379Z,62.63
2017-12-14T15:20:49.839Z,62.98
2017-12-14T15:23:16.315Z,60.88
2017-12-14T15:25:42.834Z,62.51
2017-12-14T15:28:09.554Z,61.11
2017-12-14T15:30:36.018Z,61.40
2017-12-14T15:33:02.502Z,62.95
2017-12-14T15:35:29.138Z,63.50
2017-12-14T15:37:55.716Z,63.78
2017-12-14T15:40:22.333Z,63.60
2017-12-14T15:42:49.016Z,63.91
2017-12-14T15:45:15.498Z,63.79
2017-12-14T15:47:42.012Z,62.14
2017-12-14T15:50:08.478Z,63.82
2017-12-14T15:52:35.430Z,62.84
2017-12-14T15:55:01.954Z,64.14
2017-12-14T15:57:28.396Z,64.64
2017-12-14T15:59:54.875Z,64.66
2017-12-14T16:02:21.458Z,64.88
2017-12-14T16:04:47.911Z,64.85
2017-12-14T16:07:14.513Z,65.14
2017-12-14T16:09:41.077Z,62.93
2017-12-14T16:12:07.543Z,64.15
2017-12-14T16:14:34.085Z,64.83
2017-12-14T16:17:00.773Z,65.18
2017-12-14T16:19:27.238Z,65.02
2017-12-14T16:21:53.753Z,64.69
2017-12-14T16:24:20.278Z,64.69
2017-12-14T16:26:46.694Z,64.83
2017-12-14T16:29:13.166Z,64.32
2017-12-14T16:31:39.629Z,64.62
2017-12-14T16:34:06.226Z,64.74
2017-12-14T16:36:32.789Z,64.56
2017-12-14T16:39:00.325Z,64.66
2017-12-14T16:41:27.131Z,64.83
2017-12-14T16:43:53.659Z,64.30
2017-12-14T16:46:20.141Z,65.05
2017-12-14T16:48:46.886Z,64.59
2017-12-14T16:51:13.372Z,64.96
2017-12-14T16:53:39.937Z,65.19
2017-12-14T16:56:06.382Z,65.10
2017-12-14T16:58:32.855Z,65.29
2017-12-14T17:00:59.366Z,65.24
2017-12-14T17:03:25.974Z,65.37
2017-12-14T17:05:52.587Z,65.40
2017-12-14T17:08:19.097Z,65.67
2017-12-14T17:10:45.545Z,65.79
2017-12-14T17:13:12.150Z,65.68
2017-12-14T17:15:39.525Z,65.68
2017-12-14T17:18:06.126Z,65.82
2017-12-14T17:20:32.678Z,65.86
2017-12-14T17:22:59.193Z,66.11
2017-12-14T17:25:25.774Z,66.29
2017-12-14T17:27:52.694Z,66.17
2017-12-14T17:30:19.230Z,66.31
2017-12-14T17:32:45.724Z,66.38
2017-12-14T17:35:12.202Z,66.31
2017-12-14T17:37:38.653Z,66.30
2017-12-14T17:40:05.065Z,66.29
2017-12-14T17:42:31.546Z,66.27
2017-12-14T17:44:58.023Z,66.34
2017-12-14T17:47:24.535Z,66.52
2017-12-14T17:49:51.113Z,66.30
2017-12-14T17:52:17.689Z,66.24
2017-12-14T17:54:44.273Z,66.18
2017-12-14T17:57:10.733Z,66.45
2017-12-14T17:59:40.431Z,66.31
2017-12-14T18:02:08.627Z,66.35
2017-12-14T18:04:35.130Z,66.47
2017-12-14T18:07:01.698Z,66.65
2017-12-14T18:09:28.186Z,67.00
2017-12-14T18:11:55.045Z,66.72
2017-12-14T18:14:21.527Z,66.76
2017-12-14T18:16:48.042Z,67.05
2017-12-14T18:19:14.862Z,67.11
2017-12-14T18:21:41.406Z,67.32
2017-12-14T18:24:07.839Z,67.56
2017-12-14T18:26:34.308Z,67.54
2017-12-14T18:29:01.398Z,67.48
2017-12-14T18:31:27.974Z,67.39
2017-12-14T18:33:54.552Z,67.51
2017-12-14T18:36:21.222Z,67.42
2017-12-14T18:38:47.790Z,67.41
2017-12-14T18:41:14.309Z,67.82
2017-12-14T18:43:40.813Z,68.42
2017-12-14T18:46:07.262Z,67.68
2017-12-14T18:48:33.825Z,67.21
2017-12-14T18:51:00.394Z,66.96
2017-12-14T18:53:26.901Z,67.08
2017-12-14T18:55:53.367Z,67.10
2017-12-14T18:58:19.850Z,67.57
2017-12-14T19:00:46.370Z,67.57
2017-12-14T19:03:12.959Z,67.49
2017-12-14T19:05:39.598Z,67.58
2017-12-14T19:08:06.150Z,67.67
2017-12-14T19:10:32.700Z,67.87
2017-12-14T19:12:59.290Z,67.88
2017-12-14T19:15:25.898Z,68.25
2017-12-14T19:17:52.437Z,68.33
2017-12-14T19:20:19.078Z,68.31
2017-12-14T19:22:45.653Z,68.35
2017-12-14T19:25:12.363Z,68.31
2017-12-14T19:27:39.086Z,68.31
2017-12-14T19:30:05.737Z,68.39
2017-12-14T19:32:32.421Z,68.89
2017-12-14T19:34:59.095Z,68.93
2017-12-14T19:37:25.593Z,68.54
2017-12-14T19:39:52.333Z,68.40
2017-12-14T19:42:18.933Z,68.86
2017-12-14T19:44:45.447Z,68.65
2017-12-14T19:47:11.978Z,67.93
2017-12-14T19:49:38.555Z,67.45
2017-12-14T19:52:05.062Z,67.59
2017-12-14T19:54:31.598Z,67.71
2017-12-14T19:56:58.120Z,67.87
2017-12-14T19:59:24.580Z,67.60
2017-12-14T20:01:51.074Z,68.30
2017-12-14T20:04:17.638Z,67.42
2017-12-14T20:06:44.202Z,67.79
2017-12-14T20:09:10.700Z,67.70
2017-12-14T20:11:37.222Z,68.78
2017-12-14T20:14:03.723Z,68.48
2017-12-14T20:16:30.242Z,67.17
2017-12-14T20:18:56.814Z,67.37
2017-12-14T20:21:23.372Z,67.50
2017-12-14T20:23:49.853Z,67.93
2017-12-14T20:26:16.687Z,68.15
2017-12-14T20:28:43.355Z,68.53
2017-12-14T20:31:09.870Z,67.87
2017-12-14T20:33:36.429Z,67.55
2017-12-14T20:36:03.090Z,68.04
2017-12-14T20:38:29.642Z,67.83
2017-12-14T20:40:56.297Z,68.51
2017-12-14T20:43:22.807Z,68.25
2017-12-14T20:45:49.426Z,68.22
2017-12-14T20:48:16.126Z,68.76
2017-12-14T20:50:42.679Z,68.65
2017-12-14T20:53:09.193Z,68.61
2017-12-14T20:55:35.792Z,68.57
2017-12-14T20:58:02.268Z,68.51
2017-12-14T21:00:28.730Z,68.77
2017-12-14T21:02:55.241Z,69.46
2017-12-14T21:05:21.677Z,69.93
2017-12-14T21:07:48.167Z,69.14
2017-12-14T21:10:14.681Z,69.29
2017-12-14T21:12:41.265Z,68.90
2017-12-14T21:15:07.891Z,68.90
2017-12-14T21:17:34.492Z,69.59
2017-12-14T21:20:00.947Z,68.48
2017-12-14T21:22:27.579Z,68.67
2017-12-14T21:24:54.101Z,68.65
2017-12-14T21:27:20.522Z,68.67
2017-12-14T21:29:47.021Z,68.22
2017-12-14T21:32:13.627Z,67.99
2017-12-14T21:34:40.125Z,68.49
2017-12-14T21:37:06.585Z,68.76
2017-12-14T21:39:33.082Z,68.57
2017-12-14T21:41:59.532Z,68.80
2017-12-14T21:44:26.037Z,68.90
2017-12-14T21:46:53.560Z,68.88
2017-12-14T21:49:20.318Z,69.03
2017-12-14T21:51:47.138Z,68.99
2017-12-14T21:54:13.698Z,69.11
2017-12-14T21:56:40.191Z,69.13
2017-12-14T21:59:06.781Z,69.10
2017-12-14T22:01:33.370Z,69.41
2017-12-14T22:03:59.877Z,68.75
2017-12-14T22:06:26.576Z,68.75
2017-12-14T22:08:53.392Z,69.36
2017-12-14T22:11:20.251Z,69.37
2017-12-14T22:13:46.877Z,69.63
2017-12-14T22:16:13.454Z,69.83
2017-12-14T22:18:40.025Z,70.25
2017-12-14T22:21:06.502Z,70.00
2017-12-14T22:23:33.246Z,70.60
2017-12-14T22:25:59.741Z,69.47
2017-12-14T22:28:26.148Z,69.42
2017-12-14T22:30:52.706Z,69.41
2017-12-14T22:33:19.227Z,68.80
2017-12-14T22:35:46.025Z,69.80
2017-12-14T22:38:12.517Z,69.06
2017-12-14T22:40:39.013Z,67.66
2017-12-14T22:43:05.575Z,68.22
2017-12-14T22:45:32.110Z,67.63
2017-12-14T22:47:58.598Z,67.82
2017-12-14T22:50:25.097Z,67.84
2017-12-14T22:52:51.620Z,68.21
2017-12-14T22:55:18.125Z,68.62
2017-12-14T22:57:44.737Z,70.29
2017-12-14T23:00:11.222Z,69.73
2017-12-14T23:02:37.765Z,67.67
2017-12-14T23:05:04.221Z,67.46
2017-12-14T23:07:30.771Z,67.34
2017-12-14T23:09:57.273Z,68.09
2017-12-14T23:12:23.697Z,68.39
2017-12-14T23:14:50.081Z,68.47
2017-12-14T23:17:16.593Z,68.99
2017-12-14T23:19:43.038Z,69.03
2017-12-14T23:22:09.489Z,69.14
2017-12-14T23:24:35.872Z,69.57
2017-12-14T23:27:02.952Z,69.74
2017-12-14T23:29:29.389Z,69.30
2017-12-14T23:31:55.765Z,69.03
2017-12-14T23:34:22.185Z,68.95
2017-12-14T23:36:48.617Z,69.09
2017-12-14T23:39:15.361Z,69.22
2017-12-14T23:41:41.813Z,69.12
2017-12-14T23:44:08.221Z,69.22
2017-12-14T23:46:34.592Z,69.23
2017-12-14T23:49:01.017Z,69.36
2017-12-14T23:51:27.453Z,69.47
2017-12-14T23:53:53.858Z,69.52
2017-12-14T23:56:20.257Z,69.68
2017-12-14T23:58:46.676Z,69.54
